EIKN/NOC METAR and TAF weather

Enter ICAO airport designator
Station Type Date Time Source
EIKN METAR 2021/09/23 12:00 UTC NOAA

EIKN 231200Z 25010KT 9999 FEW017 BKN024 15/11 Q1020 NOSIG


Station Type Date Time Source
EIKN Decoded METAR 2021/09/23 12:00 UTC NOAA

Connaught, Ireland (EIKN) 53-54-37N 008-49-05W
Sep 23, 2021 - 08:00 AM EDT / 2021.09.23 1200 UTC
Wind: from the WSW (250 degrees) at 12 MPH (10 KT):0
Visibility: greater than 7 mile(s):0
Sky conditions: mostly cloudy
Temperature: 59 F (15 C)
Dew Point: 51 F (11 C)
Relative Humidity: 76%
Pressure (altimeter): 30.12 in. Hg (1020 hPa)
ob: EIKN 231200Z 25010KT 9999 FEW017 BKN024 15/11 Q1020 NOSIG
cycle: 12

Station Type Date Time Source
EIKN TAF 2021/09/23 14:13 UTC NOAA

TAF EIKN 231403Z 2314/2412 CNL

Example: see airport list